Time,TemperatureF,DewpointF,PressureIn,WindDirection,WindDirectionDegrees,WindSpeedMPH,WindSpeedGustMPH,Humidity,HourlyPrecipIn,Conditions,Clouds,dailyrainin,SoftwareType,DateUTC
2013-02-04 00:02:00,48.0,30.0,29.82,South,180,10.0,-999.0,49,-99.99,,,-99.99,,2013-02-04 06:02:00,
2013-02-04 00:11:00,48.0,30.0,29.82,South,180,10.0,-999.0,49,-99.99,,,-99.99,,2013-02-04 06:11:00,
2013-02-04 00:21:00,48.0,30.0,29.82,South,180,12.0,-999.0,49,-99.99,,,-99.99,,2013-02-04 06:21:00,
2013-02-04 00:31:00,48.0,30.0,29.81,South,190,15.0,-999.0,49,-99.99,,,-99.99,,2013-02-04 06:31:00,
2013-02-04 00:41:00,48.0,30.0,29.81,South,190,12.0,-999.0,49,-99.99,,,-99.99,,2013-02-04 06:41:00,
2013-02-04 00:51:00,48.0,30.0,29.81,South,180,12.0,-999.0,49,-99.99,,,-99.99,,2013-02-04 06:51:00,
2013-02-04 01:02:00,48.0,30.0,29.81,South,180,12.0,-999.0,49,-99.99,,,-99.99,,2013-02-04 07:02:00,
2013-02-04 01:11:00,48.0,30.0,29.79,South,190,13.0,-999.0,49,-99.99,,,-99.99,,2013-02-04 07:11:00,
2013-02-04 01:21:00,48.0,30.0,29.79,South,190,12.0,-999.0,49,-99.99,,,-99.99,,2013-02-04 07:21:00,
2013-02-04 01:31:00,48.0,30.0,29.79,South,190,10.0,-999.0,49,-99.99,,,-99.99,,2013-02-04 07:31:00,
2013-02-04 01:41:00,48.0,30.0,29.79,South,190,9.0,-999.0,49,-99.99,,,-99.99,,2013-02-04 07:41:00,
2013-02-04 01:51:00,48.0,30.0,29.79,South,190,9.0,-999.0,49,-99.99,,,-99.99,,2013-02-04 07:51:00,
2013-02-04 02:01:00,48.0,30.0,29.79,South,190,9.0,-999.0,49,-99.99,,,-99.99,,2013-02-04 08:01:00,
2013-02-04 02:11:00,46.0,30.0,29.79,SSW,200,8.0,-999.0,52,-99.99,,,-99.99,,2013-02-04 08:11:00,
2013-02-04 02:21:00,48.0,30.0,29.79,SSW,200,8.0,-999.0,49,-99.99,,,-99.99,,2013-02-04 08:21:00,
2013-02-04 02:31:00,46.0,30.0,29.79,SSW,210,6.0,-999.0,52,-99.99,,,-99.99,,2013-02-04 08:31:00,
2013-02-04 02:42:00,46.0,30.0,29.79,SSW,210,7.0,-999.0,52,-99.99,,,-99.99,,2013-02-04 08:42:00,
2013-02-04 02:52:00,46.0,30.0,29.80,WNW,290,7.0,-999.0,52,-99.99,,,-99.99,,2013-02-04 08:52:00,
2013-02-04 03:02:00,46.0,30.0,29.80,WNW,290,7.0,-999.0,52,-99.99,,,-99.99,,2013-02-04 09:02:00,
2013-02-04 03:11:00,45.0,30.0,29.82,WNW,300,5.0,-999.0,56,-99.99,,,-99.99,,2013-02-04 09:11:00,
2013-02-04 03:21:00,43.0,30.0,29.81,WNW,300,5.0,-999.0,60,-99.99,,,-99.99,,2013-02-04 09:21:00,
2013-02-04 03:31:00,43.0,30.0,29.82,NW,310,3.0,-999.0,60,-99.99,,,-99.99,,2013-02-04 09:31:00,
2013-02-04 03:41:00,41.0,30.0,29.82,WNW,300,3.0,-999.0,65,-99.99,,,-99.99,,2013-02-04 09:41:00,
2013-02-04 03:51:00,43.0,30.0,29.81,WNW,290,5.0,-999.0,60,-99.99,,,-99.99,,2013-02-04 09:51:00,
2013-02-04 04:01:00,43.0,30.0,29.81,WNW,290,5.0,-999.0,60,-99.99,,,-99.99,,2013-02-04 10:01:00,
2013-02-04 04:11:00,39.0,30.0,29.81,WNW,290,5.0,-999.0,69,-99.99,,,-99.99,,2013-02-04 10:11:00,
2013-02-04 04:21:00,39.0,30.0,29.81,North,0,0.0,-999.0,69,-99.99,,,-99.99,,2013-02-04 10:21:00,
2013-02-04 04:32:00,39.0,30.0,29.82,North,0,0.0,-999.0,69,-99.99,,,-99.99,,2013-02-04 10:32:00,
2013-02-04 04:41:00,37.0,28.0,29.81,North,0,0.0,-999.0,69,-99.99,,,-99.99,,2013-02-04 10:41:00,
2013-02-04 04:51:00,37.0,30.0,29.82,WSW,250,3.0,-999.0,74,-99.99,,,-99.99,,2013-02-04 10:51:00,
2013-02-04 05:02:00,37.0,30.0,29.82,WSW,250,3.0,-999.0,74,-99.99,,,-99.99,,2013-02-04 11:02:00,
2013-02-04 05:11:00,32.0,27.0,29.82,WSW,240,3.0,-999.0,80,-99.99,,,-99.99,,2013-02-04 11:11:00,
2013-02-04 05:22:00,32.0,27.0,29.83,West,280,7.0,-999.0,80,-99.99,,,-99.99,,2013-02-04 11:22:00,
2013-02-04 05:32:00,32.0,28.0,29.84,WNW,290,10.0,-999.0,86,-99.99,,,-99.99,,2013-02-04 11:32:00,
2013-02-04 05:42:00,34.0,28.0,29.84,WNW,300,8.0,-999.0,80,-99.99,,,-99.99,,2013-02-04 11:42:00,
2013-02-04 05:52:00,36.0,28.0,29.84,NW,320,8.0,-999.0,74,-99.99,,,-99.99,,2013-02-04 11:52:00,
2013-02-04 06:02:00,36.0,28.0,29.84,NW,320,8.0,-999.0,74,-99.99,,,-99.99,,2013-02-04 12:02:00,
2013-02-04 06:12:00,37.0,28.0,29.85,NW,320,10.0,-999.0,69,-99.99,,,-99.99,,2013-02-04 12:12:00,
2013-02-04 06:21:00,37.0,27.0,29.85,NNW,330,12.0,-999.0,64,-99.99,,,-99.99,,2013-02-04 12:21:00,
2013-02-04 06:32:00,37.0,27.0,29.85,NNW,340,13.0,-999.0,64,-99.99,,,-99.99,,2013-02-04 12:32:00,
2013-02-04 06:42:00,37.0,27.0,29.85,NNW,340,12.0,-999.0,64,-99.99,,,-99.99,,2013-02-04 12:42:00,
2013-02-04 06:52:00,37.0,27.0,29.85,NNW,330,12.0,-999.0,64,-99.99,,,-99.99,,2013-02-04 12:52:00,
2013-02-04 07:02:00,37.0,27.0,29.85,NNW,330,12.0,-999.0,64,-99.99,,,-99.99,,2013-02-04 13:02:00,
2013-02-04 07:12:00,37.0,27.0,29.86,NNW,330,10.0,-999.0,64,-99.99,,,-99.99,,2013-02-04 13:12:00,
2013-02-04 07:21:00,36.0,27.0,29.87,NNW,340,13.0,-999.0,69,-99.99,,,-99.99,,2013-02-04 13:21:00,
2013-02-04 07:33:00,36.0,27.0,29.88,NNW,340,14.0,-999.0,69,-99.99,,,-99.99,,2013-02-04 13:33:00,
2013-02-04 07:42:00,36.0,27.0,29.88,NNW,340,14.0,-999.0,69,-99.99,,,-99.99,,2013-02-04 13:42:00,
2013-02-04 07:51:00,36.0,27.0,29.89,NNW,340,14.0,-999.0,69,-99.99,,,-99.99,,2013-02-04 13:51:00,
2013-02-04 08:03:00,36.0,27.0,29.89,NNW,340,14.0,-999.0,69,-99.99,,,-99.99,,2013-02-04 14:03:00,
2013-02-04 08:11:00,36.0,27.0,29.90,North,350,13.0,-999.0,69,-99.99,,,-99.99,,2013-02-04 14:11:00,
2013-02-04 08:22:00,36.0,27.0,29.90,North,350,15.0,-999.0,69,-99.99,,,-99.99,,2013-02-04 14:22:00,
2013-02-04 08:32:00,37.0,27.0,29.91,North,350,16.0,21.0,64,-99.99,,,-99.99,,2013-02-04 14:32:00,
2013-02-04 08:42:00,37.0,27.0,29.91,North,350,16.0,21.0,64,-99.99,,,-99.99,,2013-02-04 14:42:00,
2013-02-04 08:52:00,37.0,27.0,29.92,North,350,16.0,-999.0,64,-99.99,,,-99.99,,2013-02-04 14:52:00,
2013-02-04 09:03:00,37.0,27.0,29.92,North,350,16.0,-999.0,64,-99.99,,,-99.99,,2013-02-04 15:03:00,
2013-02-04 09:12:00,39.0,28.0,29.92,North,350,15.0,21.0,64,-99.99,,,-99.99,,2013-02-04 15:12:00,
2013-02-04 09:23:00,39.0,28.0,29.92,North,350,14.0,-999.0,64,-99.99,,,-99.99,,2013-02-04 15:23:00,
2013-02-04 09:33:00,39.0,28.0,29.93,North,350,15.0,-999.0,64,-99.99,,,-99.99,,2013-02-04 15:33:00,
2013-02-04 09:43:00,41.0,28.0,29.93,North,360,15.0,-999.0,60,-99.99,,,-99.99,,2013-02-04 15:43:00,
2013-02-04 09:52:00,43.0,28.0,29.93,North,360,15.0,21.0,56,-99.99,,,-99.99,,2013-02-04 15:52:00,
2013-02-04 10:02:00,43.0,28.0,29.93,North,360,15.0,21.0,56,-99.99,,,-99.99,,2013-02-04 16:02:00,
2013-02-04 10:11:00,43.0,28.0,29.93,North,360,13.0,-999.0,56,-99.99,,,-99.99,,2013-02-04 16:11:00,
2013-02-04 10:22:00,45.0,28.0,29.94,North,10,12.0,17.0,52,-99.99,,,-99.99,,2013-02-04 16:22:00,
2013-02-04 10:32:00,45.0,30.0,29.94,North,350,14.0,18.0,56,-99.99,,,-99.99,,2013-02-04 16:32:00,
2013-02-04 10:42:00,45.0,30.0,29.94,North,10,14.0,-999.0,56,-99.99,,,-99.99,,2013-02-04 16:42:00,
2013-02-04 10:51:00,46.0,28.0,29.94,North,360,16.0,-999.0,49,-99.99,,,-99.99,,2013-02-04 16:51:00,
2013-02-04 11:02:00,46.0,28.0,29.94,North,360,16.0,-999.0,49,-99.99,,,-99.99,,2013-02-04 17:02:00,
2013-02-04 11:11:00,48.0,28.0,29.95,North,360,10.0,-999.0,46,-99.99,,,-99.99,,2013-02-04 17:11:00,
2013-02-04 11:21:00,48.0,28.0,29.95,North,10,13.0,-999.0,46,-99.99,,,-99.99,,2013-02-04 17:21:00,
2013-02-04 11:32:00,48.0,28.0,29.95,North,360,9.0,-999.0,46,-99.99,,,-99.99,,2013-02-04 17:32:00,
2013-02-04 11:42:00,50.0,28.0,29.95,North,360,13.0,17.0,43,-99.99,,,-99.99,,2013-02-04 17:42:00,
2013-02-04 11:51:00,52.0,28.0,29.95,North,10,12.0,18.0,40,-99.99,,,-99.99,,2013-02-04 17:51:00,
2013-02-04 12:03:00,52.0,28.0,29.95,North,10,12.0,18.0,40,-99.99,,,-99.99,,2013-02-04 18:03:00,
2013-02-04 12:11:00,52.0,28.0,29.95,North,360,9.0,-999.0,40,-99.99,,,-99.99,,2013-02-04 18:11:00,
2013-02-04 12:22:00,52.0,28.0,29.95,NNE,20,12.0,16.0,40,-99.99,,,-99.99,,2013-02-04 18:22:00,
2013-02-04 12:32:00,52.0,28.0,29.95,NNE,20,13.0,-999.0,40,-99.99,,,-99.99,,2013-02-04 18:32:00,
2013-02-04 12:41:00,54.0,28.0,29.95,NNE,20,13.0,17.0,37,-99.99,,,-99.99,,2013-02-04 18:41:00,
2013-02-04 12:52:00,52.0,28.0,29.94,North,10,12.0,-999.0,40,-99.99,,,-99.99,,2013-02-04 18:52:00,
2013-02-04 13:02:00,52.0,28.0,29.94,North,10,12.0,-999.0,40,-99.99,,,-99.99,,2013-02-04 19:02:00,
2013-02-04 13:11:00,54.0,28.0,29.94,North,10,13.0,16.0,37,-99.99,,,-99.99,,2013-02-04 19:11:00,
2013-02-04 13:22:00,54.0,28.0,29.93,NNE,30,13.0,-999.0,37,-99.99,,,-99.99,,2013-02-04 19:22:00,
2013-02-04 13:31:00,54.0,28.0,29.93,North,10,13.0,-999.0,37,-99.99,,,-99.99,,2013-02-04 19:31:00,
2013-02-04 13:41:00,54.0,28.0,29.92,North,10,13.0,16.0,37,-99.99,,,-99.99,,2013-02-04 19:41:00,
2013-02-04 13:51:00,54.0,28.0,29.92,NNE,20,10.0,16.0,37,-99.99,,,-99.99,,2013-02-04 19:51:00,
2013-02-04 14:02:00,54.0,28.0,29.92,NNE,20,10.0,16.0,37,-99.99,,,-99.99,,2013-02-04 20:02:00,
2013-02-04 14:12:00,55.0,28.0,29.92,NNE,20,9.0,-999.0,35,-99.99,,,-99.99,,2013-02-04 20:12:00,
2013-02-04 14:21:00,55.0,28.0,29.91,North,10,10.0,17.0,35,-99.99,,,-99.99,,2013-02-04 20:21:00,
2013-02-04 14:32:00,55.0,27.0,29.91,North,360,10.0,-999.0,32,-99.99,,,-99.99,,2013-02-04 20:32:00,
2013-02-04 14:42:00,55.0,28.0,29.91,NNE,20,8.0,-999.0,35,-99.99,,,-99.99,,2013-02-04 20:42:00,
2013-02-04 14:52:00,55.0,27.0,29.91,NNE,20,10.0,-999.0,32,-99.99,,,-99.99,,2013-02-04 20:52:00,
2013-02-04 15:02:00,55.0,27.0,29.91,NNE,20,10.0,-999.0,32,-99.99,,,-99.99,,2013-02-04 21:02:00,
2013-02-04 15:11:00,55.0,27.0,29.91,North,10,12.0,-999.0,32,-99.99,,,-99.99,,2013-02-04 21:11:00,
2013-02-04 15:22:00,55.0,27.0,29.91,NE,40,10.0,-999.0,32,-99.99,,,-99.99,,2013-02-04 21:22:00,
2013-02-04 15:31:00,55.0,27.0,29.91,NNE,20,10.0,-999.0,32,-99.99,,,-99.99,,2013-02-04 21:31:00,
2013-02-04 15:42:00,55.0,27.0,29.91,NNE,20,6.0,-999.0,32,-99.99,,,-99.99,,2013-02-04 21:42:00,
2013-02-04 15:51:00,55.0,27.0,29.91,North,10,8.0,-999.0,32,-99.99,,,-99.99,,2013-02-04 21:51:00,
2013-02-04 16:02:00,55.0,27.0,29.91,North,10,8.0,-999.0,32,-99.99,,,-99.99,,2013-02-04 22:02:00,
2013-02-04 16:12:00,55.0,27.0,29.91,North,10,8.0,-999.0,32,-99.99,,,-99.99,,2013-02-04 22:12:00,
2013-02-04 16:21:00,55.0,27.0,29.91,NNE,20,8.0,-999.0,32,-99.99,,,-99.99,,2013-02-04 22:21:00,
2013-02-04 16:32:00,55.0,27.0,29.91,NNE,30,7.0,-999.0,32,-99.99,,,-99.99,,2013-02-04 22:32:00,
2013-02-04 16:41:00,55.0,27.0,29.91,NE,50,7.0,-999.0,32,-99.99,,,-99.99,,2013-02-04 22:41:00,
2013-02-04 16:51:00,54.0,27.0,29.91,NNE,20,7.0,-999.0,34,-99.99,,,-99.99,,2013-02-04 22:51:00,
2013-02-04 17:01:00,54.0,27.0,29.91,NNE,20,7.0,-999.0,34,-99.99,,,-99.99,,2013-02-04 23:01:00,
2013-02-04 17:11:00,54.0,27.0,29.91,NE,40,7.0,-999.0,34,-99.99,,,-99.99,,2013-02-04 23:11:00,
2013-02-04 17:21:00,52.0,28.0,29.91,ENE,60,7.0,-999.0,40,-99.99,,,-99.99,,2013-02-04 23:21:00,
2013-02-04 17:32:00,52.0,28.0,29.91,ENE,60,7.0,-999.0,40,-99.99,,,-99.99,,2013-02-04 23:32:00,
2013-02-04 17:41:00,50.0,28.0,29.91,ENE,60,6.0,-999.0,43,-99.99,,,-99.99,,2013-02-04 23:41:00,
2013-02-04 17:52:00,46.0,28.0,29.91,ENE,70,5.0,-999.0,49,-99.99,,,-99.99,,2013-02-04 23:52:00,
2013-02-04 18:01:00,46.0,28.0,29.91,ENE,70,5.0,-999.0,49,-99.99,,,-99.99,,2013-02-05 00:01:00,
2013-02-04 18:11:00,45.0,28.0,29.91,ENE,60,6.0,-999.0,52,-99.99,,,-99.99,,2013-02-05 00:11:00,
2013-02-04 18:21:00,41.0,28.0,29.91,NE,50,8.0,-999.0,60,-99.99,,,-99.99,,2013-02-05 00:21:00,
2013-02-04 18:31:00,39.0,28.0,29.91,East,80,5.0,-999.0,64,-99.99,,,-99.99,,2013-02-05 00:31:00,
2013-02-04 18:42:00,41.0,28.0,29.91,ENE,70,3.0,-999.0,60,-99.99,,,-99.99,,2013-02-05 00:42:00,
2013-02-04 18:51:00,39.0,28.0,29.92,ENE,70,3.0,-999.0,64,-99.99,,,-99.99,,2013-02-05 00:51:00,
2013-02-04 19:01:00,39.0,28.0,29.92,ENE,70,3.0,-999.0,64,-99.99,,,-99.99,,2013-02-05 01:01:00,
2013-02-04 19:11:00,37.0,28.0,29.92,ENE,60,5.0,-999.0,69,-99.99,,,-99.99,,2013-02-05 01:11:00,
2013-02-04 19:22:00,37.0,28.0,29.92,ENE,60,6.0,-999.0,69,-99.99,,,-99.99,,2013-02-05 01:22:00,
2013-02-04 19:32:00,37.0,28.0,29.93,ENE,70,3.0,-999.0,69,-99.99,,,-99.99,,2013-02-05 01:32:00,
2013-02-04 19:42:00,37.0,28.0,29.93,East,80,3.0,-999.0,69,-99.99,,,-99.99,,2013-02-05 01:42:00,
2013-02-04 19:51:00,37.0,28.0,29.94,ENE,60,3.0,-999.0,69,-99.99,,,-99.99,,2013-02-05 01:51:00,
2013-02-04 20:01:00,37.0,28.0,29.94,ENE,60,3.0,-999.0,69,-99.99,,,-99.99,,2013-02-05 02:01:00,
2013-02-04 20:11:00,37.0,28.0,29.94,NNE,30,3.0,-999.0,69,-99.99,,,-99.99,,2013-02-05 02:11:00,
2013-02-04 20:21:00,34.0,27.0,29.95,NNE,30,3.0,-999.0,74,-99.99,,,-99.99,,2013-02-05 02:21:00,
2013-02-04 20:31:00,36.0,28.0,29.95,North,0,0.0,-999.0,74,-99.99,,,-99.99,,2013-02-05 02:31:00,
2013-02-04 20:41:00,34.0,27.0,29.95,NNE,20,3.0,-999.0,74,-99.99,,,-99.99,,2013-02-05 02:41:00,
2013-02-04 20:52:00,34.0,27.0,29.95,NNE,30,3.0,-999.0,74,-99.99,,,-99.99,,2013-02-05 02:52:00,
2013-02-04 21:02:00,34.0,27.0,29.95,NNE,30,3.0,-999.0,74,-99.99,,,-99.99,,2013-02-05 03:02:00,
2013-02-04 21:11:00,34.0,28.0,29.96,North,0,0.0,-999.0,80,-99.99,,,-99.99,,2013-02-05 03:11:00,
2013-02-04 21:21:00,34.0,28.0,29.96,North,0,0.0,-999.0,80,-99.99,,,-99.99,,2013-02-05 03:21:00,
2013-02-04 21:31:00,36.0,28.0,29.96,North,0,0.0,-999.0,74,-99.99,,,-99.99,,2013-02-05 03:31:00,
2013-02-04 21:42:00,34.0,28.0,29.96,North,0,0.0,-999.0,80,-99.99,,,-99.99,,2013-02-05 03:42:00,
2013-02-04 21:51:00,34.0,27.0,29.96,North,0,0.0,-999.0,74,-99.99,,,-99.99,,2013-02-05 03:51:00,
2013-02-04 22:01:00,34.0,27.0,29.96,North,0,0.0,-999.0,74,-99.99,,,-99.99,,2013-02-05 04:01:00,
2013-02-04 22:11:00,34.0,28.0,29.96,North,0,0.0,-999.0,80,-99.99,,,-99.99,,2013-02-05 04:11:00,
2013-02-04 22:21:00,34.0,28.0,29.95,SSE,150,5.0,-999.0,80,-99.99,,,-99.99,,2013-02-05 04:21:00,
2013-02-04 22:32:00,32.0,28.0,29.95,SSE,160,5.0,-999.0,86,-99.99,,,-99.99,,2013-02-05 04:32:00,
2013-02-04 22:42:00,32.0,27.0,29.95,South,170,5.0,-999.0,80,-99.99,,,-99.99,,2013-02-05 04:42:00,
2013-02-04 22:52:00,30.0,27.0,29.94,SSE,160,5.0,-999.0,86,-99.99,,,-99.99,,2013-02-05 04:52:00,
2013-02-04 23:02:00,30.0,27.0,29.94,SSE,160,5.0,-999.0,86,-99.99,,,-99.99,,2013-02-05 05:02:00,
2013-02-04 23:11:00,32.0,28.0,29.94,SSE,150,3.0,-999.0,86,-99.99,,,-99.99,,2013-02-05 05:11:00,
2013-02-04 23:21:00,34.0,28.0,29.93,SSE,160,5.0,-999.0,80,-99.99,,,-99.99,,2013-02-05 05:21:00,
2013-02-04 23:32:00,34.0,28.0,29.93,South,170,5.0,-999.0,80,-99.99,,,-99.99,,2013-02-05 05:32:00,
2013-02-04 23:42:00,34.0,28.0,29.93,South,170,5.0,-999.0,80,-99.99,,,-99.99,,2013-02-05 05:42:00,
2013-02-04 23:52:00,30.0,27.0,29.93,SSE,150,7.0,-999.0,86,-99.99,,,-99.99,,2013-02-05 05:52:00,